createdAt,value
2023-03-06T00:00:41.359Z,27.83
2023-03-06T00:03:20.073Z,32.05
2023-03-06T00:05:50.226Z,29.63
2023-03-06T00:08:18.436Z,27.13
2023-03-06T00:10:47.101Z,26.90
2023-03-06T00:13:16.784Z,27.45
2023-03-06T00:15:45.488Z,28.85
2023-03-06T00:18:13.834Z,30.25
2023-03-06T00:20:43.583Z,39.25
2023-03-06T00:23:13.313Z,35.90
2023-03-06T00:25:44.183Z,35.55
2023-03-06T00:28:15.023Z,41.22
2023-03-06T00:30:43.993Z,32.03
2023-03-06T00:33:12.361Z,35.67
2023-03-06T00:35:41.215Z,43.17
2023-03-06T00:38:13.047Z,38.88
2023-03-06T00:40:41.865Z,37.05
2023-03-06T00:43:10.080Z,36.42
2023-03-06T00:45:38.699Z,33.17
2023-03-06T00:48:07.208Z,29.77
2023-03-06T00:50:36.322Z,33.35
2023-03-06T00:53:04.572Z,30.88
2023-03-06T00:55:34.504Z,37.00
2023-03-06T00:58:02.839Z,31.08
2023-03-06T01:00:31.276Z,32.53
2023-03-06T01:02:59.650Z,32.50
2023-03-06T01:05:28.304Z,31.10
2023-03-06T01:07:56.777Z,29.35
2023-03-06T01:10:25.235Z,27.63
2023-03-06T01:12:55.102Z,27.25
2023-03-06T01:15:24.146Z,28.50
2023-03-06T01:17:54.272Z,27.58
2023-03-06T01:20:22.968Z,33.60
2023-03-06T01:22:51.248Z,29.75
2023-03-06T01:25:19.741Z,34.15
2023-03-06T01:27:47.932Z,28.95
2023-03-06T01:30:18.062Z,35.42
2023-03-06T01:32:46.506Z,28.40
2023-03-06T01:35:15.398Z,29.30
2023-03-06T01:37:43.629Z,31.98
2023-03-06T01:40:14.338Z,35.42
2023-03-06T01:42:43.218Z,32.25
2023-03-06T01:45:45.147Z,33.58
2023-03-06T01:50:43.240Z,33.80
2023-03-06T01:53:11.728Z,32.80
2023-03-06T01:55:40.683Z,34.03
2023-03-06T01:58:11.193Z,32.70
2023-03-06T02:00:39.857Z,32.75
2023-03-06T02:03:11.013Z,35.67
2023-03-06T02:05:41.752Z,38.00
2023-03-06T02:08:11.456Z,37.25
2023-03-06T02:10:41.986Z,38.42
2023-03-06T02:13:10.229Z,39.28
2023-03-06T02:15:38.812Z,40.25
2023-03-06T02:18:07.282Z,39.22
2023-03-06T02:20:40.966Z,36.95
2023-03-06T02:23:12.402Z,38.28
2023-03-06T02:25:44.136Z,39.35
2023-03-06T02:28:15.133Z,42.67
2023-03-06T02:33:13.455Z,41.42
2023-03-06T02:35:45.353Z,45.22
2023-03-06T02:38:16.462Z,40.65
2023-03-06T02:40:49.260Z,40.95
2023-03-06T02:43:20.570Z,43.75
2023-03-06T02:45:51.312Z,42.08
2023-03-06T02:48:20.401Z,44.77
2023-03-06T02:50:49.413Z,40.15
2023-03-06T02:53:19.851Z,36.78
2023-03-06T02:55:50.898Z,37.65
2023-03-06T02:58:20.643Z,40.00
2023-03-06T03:00:49.853Z,37.42
2023-03-06T03:03:18.320Z,38.65
2023-03-06T03:05:47.157Z,41.55
2023-03-06T03:08:15.474Z,37.90
2023-03-06T03:10:44.120Z,42.10
2023-03-06T03:13:13.732Z,37.08
2023-03-06T03:15:42.370Z,36.80
2023-03-06T03:18:11.939Z,38.42
2023-03-06T03:20:43.187Z,36.20
2023-03-06T03:23:11.529Z,34.80
2023-03-06T03:25:40.085Z,34.65
2023-03-06T03:28:08.262Z,33.53
2023-03-06T03:30:38.250Z,39.05
2023-03-06T03:33:06.695Z,35.50
2023-03-06T03:35:35.392Z,36.42
2023-03-06T03:38:03.753Z,38.55
2023-03-06T03:40:32.391Z,34.92
2023-03-06T03:43:00.674Z,34.53
2023-03-06T03:45:29.308Z,35.75
2023-03-06T03:47:58.984Z,37.53
2023-03-06T03:50:27.894Z,36.90
2023-03-06T03:52:56.235Z,36.30
2023-03-06T03:55:24.798Z,35.03
2023-03-06T03:57:53.120Z,36.95
2023-03-06T04:00:22.010Z,35.80
2023-03-06T04:02:50.357Z,36.22
2023-03-06T04:05:20.305Z,32.10
2023-03-06T04:07:48.673Z,30.02
2023-03-06T04:10:17.386Z,36.75
2023-03-06T04:12:45.838Z,36.40
2023-03-06T04:15:14.371Z,34.83
2023-03-06T04:17:42.654Z,37.58
2023-03-06T04:20:12.464Z,29.58
2023-03-06T04:22:42.286Z,33.05
2023-03-06T04:25:11.175Z,32.05
2023-03-06T04:27:39.467Z,30.27
2023-03-06T04:30:09.527Z,30.40
2023-03-06T04:32:37.958Z,30.65
2023-03-06T04:35:07.647Z,29.13
2023-03-06T04:37:36.105Z,32.00
2023-03-06T04:40:07.254Z,27.70
2023-03-06T04:42:35.613Z,27.13
2023-03-06T04:45:04.382Z,27.38
2023-03-06T04:47:32.564Z,24.25
2023-03-06T04:50:01.551Z,26.17
2023-03-06T04:52:29.938Z,27.90
2023-03-06T04:54:58.827Z,25.65
2023-03-06T04:57:28.482Z,29.67
2023-03-06T04:59:57.019Z,27.60
2023-03-06T05:02:25.476Z,30.10
2023-03-06T05:04:54.018Z,25.95
2023-03-06T05:07:22.412Z,28.85
2023-03-06T05:09:51.025Z,29.52
2023-03-06T05:12:19.219Z,36.80
2023-03-06T05:14:49.391Z,31.90
2023-03-06T05:17:17.649Z,30.48
2023-03-06T05:19:46.261Z,32.90
2023-03-06T05:22:14.443Z,33.88
2023-03-06T05:24:42.973Z,30.02
2023-03-06T05:27:11.223Z,37.42
2023-03-06T05:29:39.846Z,40.15
2023-03-06T05:32:10.141Z,48.53
2023-03-06T05:34:38.737Z,50.42
2023-03-06T05:37:07.150Z,47.85
2023-03-06T05:39:35.665Z,48.38
2023-03-06T05:42:04.123Z,50.85
2023-03-06T05:44:33.524Z,51.45
2023-03-06T05:47:01.928Z,50.35
2023-03-06T05:49:36.898Z,45.42
2023-03-06T05:52:06.244Z,44.28
2023-03-06T05:54:36.045Z,46.78
2023-03-06T05:57:05.359Z,46.42
2023-03-06T05:59:34.118Z,42.85
2023-03-06T06:02:04.122Z,40.35
2023-03-06T06:04:34.035Z,38.30
2023-03-06T06:07:02.781Z,34.97
2023-03-06T06:09:31.333Z,36.50
2023-03-06T06:12:01.910Z,31.65
2023-03-06T06:14:30.576Z,31.83
2023-03-06T06:16:58.844Z,31.48
2023-03-06T06:19:30.012Z,30.83
2023-03-06T06:22:02.608Z,32.22
2023-03-06T06:24:31.937Z,25.90
2023-03-06T06:27:03.667Z,25.63
2023-03-06T06:29:32.775Z,25.65
2023-03-06T06:32:02.206Z,29.42
2023-03-06T06:34:31.932Z,23.52
2023-03-06T06:37:01.628Z,22.98
2023-03-06T06:39:30.548Z,23.20
2023-03-06T06:42:16.061Z,21.95
2023-03-06T06:44:47.266Z,20.88
2023-03-06T06:47:23.101Z,24.40
2023-03-06T06:49:53.362Z,20.25
2023-03-06T06:52:23.358Z,21.33
2023-03-06T06:54:52.055Z,20.27
2023-03-06T06:57:20.473Z,21.88
2023-03-06T06:59:50.160Z,22.70
2023-03-06T07:02:20.179Z,21.65
2023-03-06T07:05:02.415Z,20.23
2023-03-06T07:07:34.961Z,20.30
2023-03-06T07:10:05.684Z,18.48
2023-03-06T07:12:35.289Z,18.65
2023-03-06T07:15:04.981Z,20.88
2023-03-06T07:17:33.335Z,21.38
2023-03-06T07:20:01.985Z,21.55
2023-03-06T07:22:35.853Z,21.00
2023-03-06T07:25:12.260Z,19.20
2023-03-06T07:27:40.480Z,19.10
2023-03-06T07:30:10.578Z,17.55
2023-03-06T07:32:38.915Z,20.55
2023-03-06T07:35:19.741Z,18.65
2023-03-06T07:40:19.761Z,21.58
2023-03-06T07:42:48.310Z,22.98
2023-03-06T07:45:17.504Z,24.38
2023-03-06T07:47:46.415Z,22.40
2023-03-06T07:50:15.189Z,35.90
2023-03-06T07:52:43.460Z,39.10
2023-03-06T07:55:13.054Z,50.45
2023-03-06T07:57:42.885Z,25.02
2023-03-06T08:00:14.166Z,46.95
2023-03-06T08:02:43.567Z,24.17
2023-03-06T08:05:15.396Z,28.73
2023-03-06T08:10:14.992Z,19.20
2023-03-06T08:12:45.120Z,21.70
2023-03-06T08:15:14.568Z,17.75
2023-03-06T08:17:42.937Z,17.00
2023-03-06T08:20:14.468Z,18.63
2023-03-06T08:22:42.945Z,18.42
2023-03-06T08:25:13.455Z,19.77
2023-03-06T08:27:41.768Z,18.00
2023-03-06T08:30:13.460Z,19.30
2023-03-06T08:35:10.452Z,18.67
2023-03-06T08:37:38.740Z,17.10
2023-03-06T08:40:08.666Z,23.85
2023-03-06T08:42:36.892Z,22.20
2023-03-06T08:45:06.714Z,29.23
2023-03-06T08:47:38.094Z,34.40
2023-03-06T08:50:07.154Z,23.13
2023-03-06T08:52:35.731Z,30.40
2023-03-06T08:55:05.338Z,26.27
2023-03-06T08:57:33.761Z,21.90
2023-03-06T09:00:02.535Z,16.63
2023-03-06T09:02:31.788Z,20.60
2023-03-06T09:05:02.271Z,17.60
2023-03-06T09:07:31.593Z,13.68
2023-03-06T09:10:00.429Z,14.40
2023-03-06T09:12:30.709Z,13.65
2023-03-06T09:14:59.584Z,10.52
2023-03-06T09:17:28.167Z,13.00
2023-03-06T09:19:56.955Z,11.05
2023-03-06T09:22:26.962Z,11.60
2023-03-06T09:24:55.690Z,11.18
2023-03-06T09:27:23.901Z,12.75
2023-03-06T09:29:52.606Z,11.82
2023-03-06T09:32:20.877Z,10.23
2023-03-06T09:34:49.822Z,12.18
2023-03-06T09:37:18.569Z,9.88
2023-03-06T09:39:48.700Z,10.52
2023-03-06T09:42:19.094Z,10.25
2023-03-06T09:44:52.448Z,11.50
2023-03-06T09:47:36.885Z,9.48
2023-03-06T09:50:29.670Z,11.40
2023-03-06T09:53:09.747Z,10.90
2023-03-06T09:55:40.440Z,12.27
2023-03-06T09:58:16.040Z,9.97
2023-03-06T10:00:48.390Z,10.70
2023-03-06T10:03:23.966Z,8.90
2023-03-06T10:05:55.197Z,11.20
2023-03-06T10:08:27.520Z,11.18
2023-03-06T10:11:02.294Z,26.10
2023-03-06T10:13:38.232Z,27.17
2023-03-06T10:16:24.444Z,15.43
2023-03-06T10:18:53.116Z,12.43
2023-03-06T10:21:34.215Z,11.02
2023-03-06T10:24:08.516Z,11.73
2023-03-06T10:26:41.703Z,10.80
2023-03-06T10:29:24.024Z,11.38
2023-03-06T10:31:58.328Z,10.07
2023-03-06T10:34:30.850Z,8.90
2023-03-06T10:37:03.086Z,9.48
2023-03-06T10:39:31.631Z,10.27
2023-03-06T10:42:01.599Z,10.27
2023-03-06T10:44:33.030Z,8.55
2023-03-06T10:47:26.242Z,8.38
2023-03-06T10:49:59.698Z,9.52
2023-03-06T10:52:31.632Z,7.50
2023-03-06T10:55:24.499Z,7.53
2023-03-06T10:57:55.049Z,7.57
2023-03-06T11:00:41.098Z,9.68
2023-03-06T11:03:23.042Z,8.18
2023-03-06T11:06:00.152Z,7.65
2023-03-06T11:08:29.825Z,7.68
2023-03-06T11:11:00.984Z,6.80
2023-03-06T11:16:03.285Z,5.72
2023-03-06T11:18:36.406Z,8.25
2023-03-06T11:21:09.172Z,9.15
2023-03-06T11:23:42.370Z,6.88
2023-03-06T11:26:32.914Z,14.23
2023-03-06T11:29:14.758Z,11.25
2023-03-06T11:31:48.644Z,9.77
2023-03-06T11:34:21.539Z,9.98
2023-03-06T11:36:53.320Z,13.30
2023-03-06T11:39:27.937Z,9.00
2023-03-06T11:42:02.817Z,9.93
2023-03-06T11:44:43.167Z,9.05
2023-03-06T11:47:18.055Z,12.88
2023-03-06T11:49:48.365Z,13.02
2023-03-06T11:52:22.929Z,16.23
2023-03-06T11:54:55.587Z,11.75
2023-03-06T11:57:27.391Z,9.77
2023-03-06T12:00:15.779Z,7.90
2023-03-06T12:03:00.642Z,11.68
2023-03-06T12:05:38.671Z,13.35
2023-03-06T12:08:18.658Z,9.50
2023-03-06T12:10:51.809Z,16.35
2023-03-06T12:13:43.985Z,14.55
2023-03-06T12:16:55.722Z,9.45
2023-03-06T12:19:37.903Z,8.68
2023-03-06T12:22:20.348Z,8.68
2023-03-06T12:25:00.776Z,8.30
2023-03-06T12:27:34.964Z,11.20
2023-03-06T12:30:25.158Z,30.20
2023-03-06T12:33:04.058Z,14.05
2023-03-06T12:35:52.540Z,9.15
2023-03-06T12:38:42.651Z,8.90
2023-03-06T12:41:21.338Z,4.35
2023-03-06T12:43:59.867Z,5.28
2023-03-06T12:46:30.578Z,4.68
2023-03-06T12:49:04.884Z,6.53
2023-03-06T12:51:33.770Z,8.38
2023-03-06T12:54:03.744Z,5.22
2023-03-06T12:56:32.698Z,4.47
2023-03-06T12:59:02.795Z,4.20
2023-03-06T13:01:58.528Z,4.53
2023-03-06T13:04:42.124Z,4.97
2023-03-06T13:07:26.398Z,5.07
2023-03-06T13:10:04.083Z,6.80
2023-03-06T13:13:01.154Z,4.78
2023-03-06T13:15:41.485Z,7.07
2023-03-06T13:18:56.035Z,6.80
2023-03-06T13:22:10.360Z,6.00
2023-03-06T13:24:40.100Z,6.20
2023-03-06T13:27:11.227Z,5.68
2023-03-06T13:30:07.489Z,8.13
2023-03-06T13:32:37.436Z,7.53
2023-03-06T13:35:47.485Z,9.05
2023-03-06T13:38:34.088Z,6.20
2023-03-06T13:41:43.162Z,8.95
2023-03-06T13:44:46.082Z,18.67
2023-03-06T13:48:02.472Z,13.45
2023-03-06T13:50:38.154Z,15.20
2023-03-06T13:53:42.692Z,30.63
2023-03-06T13:56:35.410Z,28.60
2023-03-06T13:59:24.342Z,15.23
2023-03-06T14:02:00.060Z,11.98
2023-03-06T14:04:38.269Z,13.00
2023-03-06T14:07:26.783Z,23.15
2023-03-06T14:10:12.667Z,17.08
2023-03-06T14:12:43.598Z,9.75
2023-03-06T14:15:20.419Z,10.52
2023-03-06T14:17:55.630Z,13.90
2023-03-06T14:20:28.956Z,12.38
2023-03-06T14:23:16.574Z,9.82
2023-03-06T14:25:46.565Z,9.57
2023-03-06T14:28:25.820Z,14.05
2023-03-06T14:30:56.671Z,17.73
2023-03-06T14:33:32.630Z,16.25
2023-03-06T14:36:03.528Z,8.57
2023-03-06T14:38:36.906Z,10.70
2023-03-06T14:41:07.123Z,8.30
2023-03-06T14:43:35.641Z,9.93
2023-03-06T14:46:07.011Z,8.98
2023-03-06T14:48:41.938Z,8.98
2023-03-06T14:51:17.669Z,10.50
2023-03-06T14:53:48.302Z,9.77
2023-03-06T14:56:19.752Z,9.35
2023-03-06T14:58:56.998Z,13.40
2023-03-06T15:01:32.568Z,17.02
2023-03-06T15:04:02.145Z,14.07
2023-03-06T15:06:34.591Z,15.48
2023-03-06T15:09:07.940Z,12.77
2023-03-06T15:11:53.758Z,13.18
2023-03-06T15:14:24.456Z,13.23
2023-03-06T15:16:54.067Z,13.33
2023-03-06T15:19:23.506Z,15.27
2023-03-06T15:21:52.575Z,15.45
2023-03-06T15:24:33.876Z,11.30
2023-03-06T15:27:03.706Z,10.70
2023-03-06T15:29:32.802Z,9.68
2023-03-06T15:32:31.297Z,9.38
2023-03-06T15:35:28.677Z,10.75
2023-03-06T15:37:57.318Z,11.88
2023-03-06T15:40:28.447Z,14.48
2023-03-06T15:42:57.119Z,12.38
2023-03-06T15:45:26.817Z,14.98
2023-03-06T15:47:56.831Z,16.38
2023-03-06T15:50:27.022Z,14.90
2023-03-06T15:52:57.477Z,12.88
2023-03-06T15:55:26.963Z,20.88
2023-03-06T15:57:57.704Z,23.90
2023-03-06T16:00:28.788Z,21.67
2023-03-06T16:02:58.969Z,15.82
2023-03-06T16:05:28.419Z,21.83
2023-03-06T16:07:57.304Z,17.27
2023-03-06T16:10:27.397Z,19.75
2023-03-06T16:12:57.673Z,23.40
2023-03-06T16:15:29.178Z,23.83
2023-03-06T16:17:59.864Z,25.80
2023-03-06T16:20:30.088Z,30.58
2023-03-06T16:22:58.570Z,24.52
2023-03-06T16:25:28.674Z,28.50
2023-03-06T16:27:59.095Z,30.85
2023-03-06T16:30:29.968Z,41.58
2023-03-06T16:32:59.954Z,32.88
2023-03-06T16:35:29.015Z,72.78
2023-03-06T16:37:57.270Z,26.52
2023-03-06T16:40:27.621Z,29.67
2023-03-06T16:42:56.751Z,26.02
2023-03-06T16:45:25.913Z,23.55
2023-03-06T16:47:54.541Z,28.33
2023-03-06T16:50:26.787Z,69.80
2023-03-06T16:52:56.351Z,29.88
2023-03-06T16:55:26.597Z,26.38
2023-03-06T16:57:55.689Z,28.63
2023-03-06T17:00:25.000Z,28.83
2023-03-06T17:02:53.784Z,65.95
2023-03-06T17:05:22.551Z,58.80
2023-03-06T17:07:52.174Z,37.47
2023-03-06T17:10:22.751Z,30.27
2023-03-06T17:12:51.223Z,28.92
2023-03-06T17:15:19.846Z,34.03
2023-03-06T17:17:48.714Z,28.85
2023-03-06T17:20:17.703Z,36.20
2023-03-06T17:22:46.121Z,42.40
2023-03-06T17:25:16.672Z,26.73
2023-03-06T17:27:44.989Z,37.67
2023-03-06T17:30:14.100Z,30.67
2023-03-06T17:32:42.531Z,58.53
2023-03-06T17:35:11.085Z,39.10
2023-03-06T17:37:39.401Z,27.02
2023-03-06T17:40:10.119Z,58.08
2023-03-06T17:42:39.692Z,31.50
2023-03-06T17:45:11.255Z,27.67
2023-03-06T17:47:39.497Z,36.20
2023-03-06T17:50:08.907Z,29.08
2023-03-06T17:52:37.537Z,32.35
2023-03-06T17:55:07.145Z,25.48
2023-03-06T17:57:35.493Z,32.17
2023-03-06T18:00:06.974Z,31.00
2023-03-06T18:02:35.170Z,31.30
2023-03-06T18:05:04.073Z,62.78
2023-03-06T18:07:32.548Z,42.58
2023-03-06T18:10:01.102Z,32.63
2023-03-06T18:12:29.556Z,34.97
2023-03-06T18:14:57.991Z,37.40
2023-03-06T18:17:27.604Z,37.90
2023-03-06T18:19:57.163Z,32.90
2023-03-06T18:22:25.407Z,34.30
2023-03-06T18:24:54.032Z,37.92
2023-03-06T18:27:22.304Z,37.42
2023-03-06T18:29:52.254Z,33.42
2023-03-06T18:32:20.577Z,41.00
2023-03-06T18:34:51.856Z,51.67
2023-03-06T18:37:20.093Z,41.83
2023-03-06T18:39:49.079Z,52.42
2023-03-06T18:42:17.294Z,41.53
2023-03-06T18:44:47.912Z,51.78
2023-03-06T18:47:16.452Z,46.00
2023-03-06T18:49:46.400Z,48.95
2023-03-06T18:52:15.991Z,37.05
2023-03-06T18:54:44.594Z,49.08
2023-03-06T18:57:12.818Z,50.80
2023-03-06T18:59:41.293Z,49.60
2023-03-06T19:02:11.283Z,51.65
2023-03-06T19:04:39.863Z,40.03
2023-03-06T19:07:08.186Z,38.40
2023-03-06T19:09:38.145Z,38.40
2023-03-06T19:12:07.365Z,41.13
2023-03-06T19:14:36.446Z,37.97
2023-03-06T19:17:04.725Z,36.85
2023-03-06T19:19:33.504Z,41.20
2023-03-06T19:22:02.088Z,34.63
2023-03-06T19:24:30.657Z,38.28
2023-03-06T19:27:00.292Z,37.60
2023-03-06T19:29:28.903Z,41.58
2023-03-06T19:31:58.945Z,41.25
2023-03-06T19:34:27.632Z,35.55
2023-03-06T19:36:55.967Z,36.25
2023-03-06T19:39:24.465Z,38.10
2023-03-06T19:41:53.087Z,36.03
2023-03-06T19:44:23.341Z,37.60
2023-03-06T19:46:51.594Z,41.50
2023-03-06T19:49:22.354Z,37.15
2023-03-06T19:51:50.563Z,37.63
2023-03-06T19:54:23.458Z,40.95
2023-03-06T19:56:51.966Z,39.35
2023-03-06T19:59:22.026Z,36.05
2023-03-06T20:01:50.546Z,38.63
2023-03-06T20:04:19.220Z,36.60
2023-03-06T20:06:48.438Z,37.95
2023-03-06T20:09:17.320Z,49.22
2023-03-06T20:11:46.027Z,53.65
2023-03-06T20:14:14.669Z,48.38
2023-03-06T20:16:44.337Z,46.05
2023-03-06T20:19:13.227Z,41.60
2023-03-06T20:21:41.508Z,39.28
2023-03-06T20:24:16.689Z,40.88
2023-03-06T20:26:45.405Z,38.38
2023-03-06T20:29:14.155Z,34.42
2023-03-06T20:31:42.625Z,30.67
2023-03-06T20:34:12.718Z,34.05
2023-03-06T20:36:41.536Z,34.58
2023-03-06T20:39:12.231Z,33.00
2023-03-06T20:41:41.199Z,34.57
2023-03-06T20:44:13.456Z,33.08
2023-03-06T20:46:42.005Z,31.70
2023-03-06T20:49:13.744Z,34.00
2023-03-06T20:51:42.523Z,36.15
2023-03-06T20:54:12.907Z,36.00
2023-03-06T20:56:41.921Z,30.48
2023-03-06T20:59:12.486Z,31.42
2023-03-06T21:01:42.511Z,35.17
2023-03-06T21:04:14.050Z,34.05
2023-03-06T21:06:45.409Z,32.15
2023-03-06T21:09:14.591Z,31.80
2023-03-06T21:11:43.170Z,30.20
2023-03-06T21:14:13.297Z,31.73
2023-03-06T21:16:41.587Z,35.45
2023-03-06T21:19:11.233Z,32.95
2023-03-06T21:21:41.113Z,36.55
2023-03-06T21:24:09.668Z,34.08
2023-03-06T21:26:38.004Z,35.35
2023-03-06T21:29:06.837Z,33.92
2023-03-06T21:31:35.188Z,34.45
2023-03-06T21:34:05.552Z,38.42
2023-03-06T21:36:34.297Z,34.35
2023-03-06T21:39:06.562Z,33.50
2023-03-06T21:41:34.922Z,33.80
2023-03-06T21:44:05.226Z,40.15
2023-03-06T21:46:33.888Z,34.28
2023-03-06T21:49:04.040Z,33.55
2023-03-06T21:51:33.006Z,35.33
2023-03-06T21:54:02.168Z,32.38
2023-03-06T21:56:33.558Z,31.23
2023-03-06T21:59:02.688Z,36.47
2023-03-06T22:01:31.442Z,34.17
2023-03-06T22:04:00.206Z,32.33
2023-03-06T22:06:31.341Z,33.58
2023-03-06T22:11:31.402Z,34.75
2023-03-06T22:14:01.529Z,34.67
2023-03-06T22:16:30.153Z,31.33
2023-03-06T22:18:59.328Z,33.55
2023-03-06T22:21:27.896Z,31.73
2023-03-06T22:23:58.640Z,34.17
2023-03-06T22:26:27.674Z,32.80
2023-03-06T22:28:56.180Z,32.75
2023-03-06T22:31:27.390Z,37.55
2023-03-06T22:33:57.406Z,37.08
2023-03-06T22:36:26.006Z,35.72
2023-03-06T22:38:56.730Z,41.22
2023-03-06T22:41:25.845Z,37.80
2023-03-06T22:43:56.686Z,40.17
2023-03-06T22:46:27.259Z,41.63
2023-03-06T22:48:57.058Z,37.47
2023-03-06T22:51:25.533Z,39.38
2023-03-06T22:53:54.150Z,38.08
2023-03-06T22:56:23.291Z,40.25
2023-03-06T22:58:52.080Z,36.97
2023-03-06T23:01:22.613Z,38.15
2023-03-06T23:03:54.252Z,45.22
2023-03-06T23:06:24.796Z,47.35
2023-03-06T23:08:55.000Z,47.42
2023-03-06T23:11:24.233Z,48.50
2023-03-06T23:13:53.027Z,44.08
2023-03-06T23:16:21.678Z,45.40
2023-03-06T23:18:50.169Z,40.78
2023-03-06T23:21:20.827Z,43.13
2023-03-06T23:23:50.392Z,38.53
2023-03-06T23:26:20.353Z,38.85
2023-03-06T23:28:48.841Z,39.15
2023-03-06T23:31:18.506Z,42.22
2023-03-06T23:33:47.213Z,44.10
2023-03-06T23:36:17.141Z,40.63
2023-03-06T23:38:47.682Z,38.10
2023-03-06T23:41:18.411Z,38.60
2023-03-06T23:43:47.166Z,41.10
2023-03-06T23:46:16.132Z,37.00
2023-03-06T23:48:45.340Z,35.78
2023-03-06T23:51:15.870Z,34.58
2023-03-06T23:53:44.615Z,40.20
2023-03-06T23:56:14.739Z,36.40
2023-03-06T23:58:43.254Z,37.93
